createdAt,value
2023-01-30T00:00:06.515Z,12.60
2023-01-30T00:02:33.230Z,11.03
2023-01-30T00:05:00.419Z,11.77
2023-01-30T00:07:27.593Z,13.00
2023-01-30T00:09:54.231Z,11.93
2023-01-30T00:12:21.041Z,12.07
2023-01-30T00:14:47.709Z,12.50
2023-01-30T00:17:14.480Z,12.60
2023-01-30T00:19:41.248Z,12.43
2023-01-30T00:22:08.093Z,12.30
2023-01-30T00:24:34.840Z,11.60
2023-01-30T00:27:01.641Z,11.97
2023-01-30T00:29:28.388Z,12.77
2023-01-30T00:31:55.240Z,12.67
2023-01-30T00:34:21.951Z,12.53
2023-01-30T00:36:55.997Z,11.87
2023-01-30T00:39:36.584Z,12.37
2023-01-30T00:42:22.234Z,12.40
2023-01-30T00:45:15.092Z,11.47
2023-01-30T00:47:41.858Z,13.07
2023-01-30T00:50:09.489Z,12.40
2023-01-30T00:52:36.221Z,13.17
2023-01-30T00:55:03.026Z,11.77
2023-01-30T00:57:30.020Z,11.27
2023-01-30T00:59:57.492Z,12.30
2023-01-30T01:02:24.254Z,11.90
2023-01-30T01:05:00.539Z,11.37
2023-01-30T01:07:27.659Z,11.90
2023-01-30T01:09:56.052Z,11.87
2023-01-30T01:12:22.853Z,9.40
2023-01-30T01:14:49.493Z,12.17
2023-01-30T01:17:16.263Z,12.23
2023-01-30T01:19:42.982Z,12.60
2023-01-30T01:22:09.648Z,9.80
2023-01-30T01:24:36.328Z,9.77
2023-01-30T01:27:03.013Z,11.87
2023-01-30T01:29:29.636Z,12.03
2023-01-30T01:31:58.144Z,10.83
2023-01-30T01:34:24.925Z,8.50
2023-01-30T01:36:54.246Z,12.73
2023-01-30T01:39:21.644Z,10.87
2023-01-30T01:41:48.352Z,11.20
2023-01-30T01:44:17.618Z,9.07
2023-01-30T01:46:51.471Z,11.90
2023-01-30T01:49:30.825Z,11.53
2023-01-30T01:52:13.896Z,11.97
2023-01-30T01:54:51.716Z,11.97
2023-01-30T01:57:25.173Z,11.90
2023-01-30T01:59:57.459Z,9.13
2023-01-30T02:02:39.028Z,10.63
2023-01-30T02:05:07.597Z,10.33
2023-01-30T02:07:40.265Z,11.23
2023-01-30T02:10:14.047Z,10.17
2023-01-30T02:12:44.347Z,5.83
2023-01-30T02:15:11.931Z,9.30
2023-01-30T02:17:38.727Z,11.70
2023-01-30T02:20:14.905Z,12.63
2023-01-30T02:23:08.310Z,12.10
2023-01-30T02:25:39.532Z,10.03
2023-01-30T02:28:41.419Z,12.20
2023-01-30T02:31:39.119Z,10.57
2023-01-30T02:34:19.671Z,12.10
2023-01-30T02:37:02.674Z,12.37
2023-01-30T02:39:39.003Z,11.47
2023-01-30T02:42:28.696Z,12.63
2023-01-30T02:45:16.014Z,11.77
2023-01-30T02:47:54.993Z,11.30
2023-01-30T02:53:06.178Z,7.57
2023-01-30T02:55:32.896Z,11.77
2023-01-30T02:58:00.493Z,11.37
2023-01-30T03:00:42.250Z,13.40
2023-01-30T03:03:11.839Z,12.23
2023-01-30T03:06:01.002Z,11.32
2023-01-30T03:08:38.091Z,12.02
2023-01-30T03:11:10.148Z,12.20
2023-01-30T03:13:38.081Z,12.00
2023-01-30T03:16:32.010Z,11.47
2023-01-30T03:19:07.349Z,12.10
2023-01-30T03:21:34.187Z,11.80
2023-01-30T03:24:00.969Z,10.73
2023-01-30T03:26:33.219Z,12.40
2023-01-30T03:29:04.661Z,10.47
2023-01-30T03:31:31.455Z,11.60
2023-01-30T03:33:58.861Z,10.47
2023-01-30T03:36:25.818Z,10.57
2023-01-30T03:38:53.023Z,12.77
2023-01-30T03:41:19.759Z,13.17
2023-01-30T03:43:46.457Z,10.53
2023-01-30T03:46:16.060Z,12.33
2023-01-30T03:48:42.846Z,12.47
2023-01-30T03:51:09.536Z,10.82
2023-01-30T03:53:36.238Z,11.77
2023-01-30T03:56:03.087Z,11.87
2023-01-30T03:58:29.944Z,12.70
2023-01-30T04:01:00.121Z,11.65
2023-01-30T04:03:26.832Z,10.98
2023-01-30T04:05:53.584Z,11.10
2023-01-30T04:08:23.677Z,9.45
2023-01-30T04:10:50.507Z,11.18
2023-01-30T04:13:17.183Z,10.38
2023-01-30T04:15:43.983Z,11.03
2023-01-30T04:18:10.759Z,10.40
2023-01-30T04:23:06.728Z,10.68
2023-01-30T04:25:33.459Z,9.45
2023-01-30T04:28:00.288Z,8.93
2023-01-30T04:30:27.166Z,10.25
2023-01-30T04:32:53.922Z,9.50
2023-01-30T04:35:20.648Z,9.55
2023-01-30T04:37:47.274Z,9.82
2023-01-30T04:40:14.187Z,7.72
2023-01-30T04:42:41.035Z,10.20
2023-01-30T04:45:08.315Z,8.48
2023-01-30T04:47:35.489Z,8.68
2023-01-30T04:50:02.174Z,7.82
2023-01-30T04:52:28.871Z,9.32
2023-01-30T04:54:59.763Z,7.70
2023-01-30T04:57:26.426Z,8.15
2023-01-30T04:59:53.204Z,8.52
2023-01-30T05:02:21.814Z,8.98
2023-01-30T05:04:50.776Z,9.10
2023-01-30T05:07:17.950Z,8.52
2023-01-30T05:09:45.222Z,9.27
2023-01-30T05:12:14.935Z,7.80
2023-01-30T05:14:41.600Z,8.60
2023-01-30T05:17:08.490Z,9.15
2023-01-30T05:19:35.775Z,8.20
2023-01-30T05:22:02.812Z,7.97
2023-01-30T05:24:29.930Z,8.60
2023-01-30T05:26:56.634Z,8.52
2023-01-30T05:29:23.398Z,8.38
2023-01-30T05:31:52.610Z,8.95
2023-01-30T05:34:19.496Z,6.55
2023-01-30T05:36:46.234Z,9.38
2023-01-30T05:39:13.235Z,9.07
2023-01-30T05:41:40.403Z,9.45
2023-01-30T05:44:15.157Z,10.88
2023-01-30T05:46:41.985Z,10.07
2023-01-30T05:49:08.764Z,8.98
2023-01-30T05:51:35.446Z,7.28
2023-01-30T05:54:02.111Z,9.73
2023-01-30T05:56:35.392Z,10.85
2023-01-30T05:59:03.606Z,10.23
2023-01-30T06:01:36.616Z,9.48
2023-01-30T06:04:11.516Z,10.13
2023-01-30T06:06:39.098Z,9.32
2023-01-30T06:09:05.834Z,9.98
2023-01-30T06:11:32.655Z,9.68
2023-01-30T06:13:59.292Z,10.95
2023-01-30T06:16:26.386Z,9.00
2023-01-30T06:18:53.553Z,10.57
2023-01-30T06:21:20.565Z,10.00
2023-01-30T06:23:47.607Z,10.68
2023-01-30T06:26:14.497Z,10.48
2023-01-30T06:28:41.255Z,10.63
2023-01-30T06:31:08.758Z,10.50
2023-01-30T06:33:35.695Z,10.95
2023-01-30T06:36:02.464Z,6.20
2023-01-30T06:38:29.203Z,10.50
2023-01-30T06:40:56.001Z,10.77
2023-01-30T06:43:22.818Z,10.95
2023-01-30T06:45:49.531Z,5.95
2023-01-30T06:48:16.216Z,10.87
2023-01-30T06:50:44.243Z,8.80
2023-01-30T06:53:11.349Z,8.40
2023-01-30T06:58:06.285Z,9.77
2023-01-30T07:00:34.041Z,11.57
2023-01-30T07:03:00.816Z,11.15
2023-01-30T07:05:29.094Z,9.70
2023-01-30T07:07:56.660Z,8.80
2023-01-30T07:10:26.783Z,10.02
2023-01-30T07:12:53.755Z,10.05
2023-01-30T07:15:20.843Z,11.20
2023-01-30T07:17:48.331Z,10.20
2023-01-30T07:20:15.228Z,8.80
2023-01-30T07:22:42.017Z,9.65
2023-01-30T07:25:08.954Z,9.85
2023-01-30T07:27:35.796Z,9.70
2023-01-30T07:30:02.592Z,8.97
2023-01-30T07:32:29.642Z,11.00
2023-01-30T07:34:56.324Z,11.27
2023-01-30T07:37:23.022Z,10.98
2023-01-30T07:39:49.658Z,10.95
2023-01-30T07:42:16.409Z,6.70
2023-01-30T07:44:43.177Z,8.57
2023-01-30T07:47:10.018Z,8.40
2023-01-30T07:49:36.675Z,10.55
2023-01-30T07:52:03.369Z,10.68
2023-01-30T07:54:30.141Z,9.60
2023-01-30T07:56:56.831Z,8.45
2023-01-30T07:59:23.700Z,6.70
2023-01-30T08:01:50.357Z,8.95
2023-01-30T08:04:17.006Z,10.93
2023-01-30T08:06:43.650Z,9.60
2023-01-30T08:09:10.607Z,10.07
2023-01-30T08:14:03.975Z,11.37
2023-01-30T08:16:32.538Z,9.15
2023-01-30T08:18:59.384Z,10.05
2023-01-30T08:21:26.155Z,10.65
2023-01-30T08:23:52.985Z,10.55
2023-01-30T08:26:19.964Z,10.48
2023-01-30T08:28:46.727Z,10.88
2023-01-30T08:31:15.799Z,11.80
2023-01-30T08:33:43.286Z,9.77
2023-01-30T08:36:09.959Z,9.98
2023-01-30T08:41:08.477Z,10.98
2023-01-30T08:43:35.784Z,8.02
2023-01-30T08:46:02.811Z,10.68
2023-01-30T08:48:36.660Z,9.07
2023-01-30T08:51:03.620Z,8.85
2023-01-30T08:53:30.697Z,8.00
2023-01-30T08:55:57.341Z,7.35
2023-01-30T08:58:24.077Z,8.43
2023-01-30T09:00:51.006Z,8.38
2023-01-30T09:03:18.700Z,8.63
2023-01-30T09:05:54.155Z,6.43
2023-01-30T09:08:21.062Z,8.23
2023-01-30T09:10:47.737Z,7.88
2023-01-30T09:13:14.504Z,6.95
2023-01-30T09:15:42.693Z,6.85
2023-01-30T09:18:09.452Z,7.20
2023-01-30T09:20:36.270Z,6.85
2023-01-30T09:23:02.960Z,7.43
2023-01-30T09:25:29.562Z,7.32
2023-01-30T09:27:56.235Z,8.27
2023-01-30T09:30:23.004Z,7.97
2023-01-30T09:32:49.709Z,7.30
2023-01-30T09:35:16.480Z,7.13
2023-01-30T09:37:50.730Z,6.30
2023-01-30T09:40:21.322Z,6.78
2023-01-30T09:43:20.549Z,6.00
2023-01-30T09:46:01.865Z,5.97
2023-01-30T09:48:41.218Z,6.20
2023-01-30T09:51:39.239Z,5.88
2023-01-30T09:54:08.917Z,5.05
2023-01-30T09:56:35.574Z,4.18
2023-01-30T09:59:04.674Z,5.45
2023-01-30T10:01:39.339Z,4.15
2023-01-30T10:04:23.436Z,4.88
2023-01-30T10:07:02.396Z,4.20
2023-01-30T10:09:38.277Z,4.88
2023-01-30T10:12:15.492Z,4.00
2023-01-30T10:15:24.711Z,3.53
2023-01-30T10:18:03.103Z,3.03
2023-01-30T10:20:39.276Z,3.80
2023-01-30T10:23:39.271Z,4.53
2023-01-30T10:26:13.384Z,4.43
2023-01-30T10:29:06.739Z,3.83
2023-01-30T10:31:39.476Z,4.85
2023-01-30T10:34:25.031Z,4.75
2023-01-30T10:36:54.804Z,4.60
2023-01-30T10:39:38.738Z,4.57
2023-01-30T10:42:19.909Z,6.20
2023-01-30T10:44:47.987Z,4.57
2023-01-30T10:47:41.740Z,3.10
2023-01-30T10:50:20.743Z,4.78
2023-01-30T10:52:57.231Z,4.95
2023-01-30T10:55:38.663Z,5.15
2023-01-30T10:58:30.729Z,5.10
2023-01-30T11:01:07.130Z,3.28
2023-01-30T11:03:38.301Z,4.88
2023-01-30T11:06:17.386Z,5.60
2023-01-30T11:08:44.545Z,5.45
2023-01-30T11:11:30.205Z,4.75
2023-01-30T11:14:05.967Z,4.65
2023-01-30T11:16:39.234Z,4.28
2023-01-30T11:19:19.467Z,5.10
2023-01-30T11:21:52.603Z,3.88
2023-01-30T11:24:28.777Z,5.65
2023-01-30T11:26:59.880Z,3.33
2023-01-30T11:29:32.121Z,4.20
2023-01-30T11:32:05.489Z,4.60
2023-01-30T11:34:32.788Z,4.55
2023-01-30T11:37:30.672Z,4.15
2023-01-30T11:39:57.695Z,4.03
2023-01-30T11:42:31.873Z,3.88
2023-01-30T11:45:17.142Z,3.40
2023-01-30T11:47:57.836Z,4.30
2023-01-30T11:50:39.403Z,3.90
2023-01-30T11:53:07.570Z,4.35
2023-01-30T11:58:09.593Z,4.35
2023-01-30T12:00:39.549Z,3.60
2023-01-30T12:03:12.125Z,3.53
2023-01-30T12:05:42.731Z,3.60
2023-01-30T12:08:31.159Z,3.70
2023-01-30T12:11:02.697Z,3.00
2023-01-30T12:16:16.454Z,3.45
2023-01-30T12:19:05.529Z,3.25
2023-01-30T12:21:32.167Z,3.60
2023-01-30T12:24:18.606Z,2.78
2023-01-30T12:26:57.174Z,4.30
2023-01-30T12:29:34.664Z,3.15
2023-01-30T12:32:21.605Z,3.08
2023-01-30T12:34:48.573Z,3.00
2023-01-30T12:37:33.311Z,3.78
2023-01-30T12:40:26.483Z,3.95
2023-01-30T12:43:02.224Z,3.70
2023-01-30T12:45:33.077Z,3.17
2023-01-30T12:48:35.635Z,3.63
2023-01-30T12:51:15.729Z,3.35
2023-01-30T12:54:15.900Z,3.28
2023-01-30T12:57:10.520Z,3.50
2023-01-30T12:59:39.693Z,4.18
2023-01-30T13:02:26.428Z,3.13
2023-01-30T13:05:11.789Z,4.55
2023-01-30T13:10:31.743Z,3.60
2023-01-30T13:13:21.722Z,3.70
2023-01-30T13:16:10.167Z,3.35
2023-01-30T13:18:39.360Z,3.72
2023-01-30T13:21:39.317Z,2.97
2023-01-30T13:24:39.397Z,3.50
2023-01-30T13:27:14.010Z,3.22
2023-01-30T13:29:42.176Z,3.42
2023-01-30T13:32:35.821Z,3.75
2023-01-30T13:35:07.412Z,3.83
2023-01-30T13:37:34.699Z,4.07
2023-01-30T13:40:23.893Z,3.85
2023-01-30T13:43:04.874Z,3.75
2023-01-30T13:45:39.314Z,3.55
2023-01-30T13:48:21.046Z,4.25
2023-01-30T13:51:17.192Z,3.78
2023-01-30T13:53:53.756Z,4.32
2023-01-30T13:56:41.267Z,3.53
2023-01-30T13:59:24.657Z,4.35
2023-01-30T14:02:02.250Z,3.92
2023-01-30T14:04:45.290Z,3.40
2023-01-30T14:07:32.619Z,3.40
2023-01-30T14:10:05.135Z,3.20
2023-01-30T14:12:39.349Z,4.80
2023-01-30T14:15:15.193Z,3.85
2023-01-30T14:18:21.676Z,4.57
2023-01-30T14:20:50.785Z,3.50
2023-01-30T14:23:28.155Z,2.78
2023-01-30T14:25:59.000Z,3.30
2023-01-30T14:28:31.594Z,3.47
2023-01-30T14:31:02.895Z,3.33
2023-01-30T14:33:36.274Z,2.80
2023-01-30T14:36:02.941Z,3.33
2023-01-30T14:38:31.263Z,2.63
2023-01-30T14:41:00.875Z,2.75
2023-01-30T14:43:39.804Z,2.67
2023-01-30T14:46:28.164Z,2.85
2023-01-30T14:49:05.306Z,2.85
2023-01-30T14:51:39.633Z,3.58
2023-01-30T14:54:13.324Z,3.40
2023-01-30T14:56:46.362Z,2.92
2023-01-30T14:59:15.822Z,3.47
2023-01-30T15:01:57.984Z,3.03
2023-01-30T15:04:27.356Z,2.55
2023-01-30T15:06:55.271Z,2.78
2023-01-30T15:09:26.414Z,3.40
2023-01-30T15:12:30.751Z,3.60
2023-01-30T15:15:18.659Z,3.65
2023-01-30T15:18:08.219Z,4.00
2023-01-30T15:20:39.809Z,3.85
2023-01-30T15:23:35.803Z,3.53
2023-01-30T15:26:25.210Z,3.28
2023-01-30T15:29:10.584Z,3.20
2023-01-30T15:34:18.938Z,3.22
2023-01-30T15:36:45.596Z,3.25
2023-01-30T15:39:23.997Z,3.58
2023-01-30T15:41:53.000Z,2.95
2023-01-30T15:44:40.435Z,3.22
2023-01-30T15:47:30.428Z,3.08
2023-01-30T15:50:01.355Z,4.45
2023-01-30T15:52:39.430Z,3.30
2023-01-30T15:55:08.016Z,3.03
2023-01-30T15:57:38.483Z,3.58
2023-01-30T16:00:11.816Z,3.25
2023-01-30T16:02:39.458Z,2.85
2023-01-30T16:05:18.817Z,3.17
2023-01-30T16:07:48.204Z,3.25
2023-01-30T16:10:23.243Z,2.88
2023-01-30T16:12:53.112Z,3.65
2023-01-30T16:15:39.466Z,3.38
2023-01-30T16:18:23.017Z,3.30
2023-01-30T16:21:01.503Z,2.92
2023-01-30T16:23:39.423Z,2.70
2023-01-30T16:26:09.383Z,3.45
2023-01-30T16:28:36.299Z,3.03
2023-01-30T16:31:08.407Z,2.90
2023-01-30T16:33:39.654Z,4.00
2023-01-30T16:36:21.558Z,4.90
2023-01-30T16:38:51.339Z,4.30
2023-01-30T16:41:39.635Z,3.38
2023-01-30T16:44:16.909Z,3.53
2023-01-30T16:47:02.658Z,3.10
2023-01-30T16:49:39.498Z,3.30
2023-01-30T16:52:18.669Z,3.38
2023-01-30T16:54:49.572Z,3.80
2023-01-30T17:00:17.923Z,3.70
2023-01-30T17:02:51.774Z,4.00
2023-01-30T17:05:20.804Z,4.50
2023-01-30T17:07:49.646Z,3.70
2023-01-30T17:10:28.751Z,4.00
2023-01-30T17:12:56.533Z,3.97
2023-01-30T17:15:27.967Z,3.40
2023-01-30T17:17:54.687Z,3.20
2023-01-30T17:20:21.863Z,3.05
2023-01-30T17:22:54.744Z,3.38
2023-01-30T17:25:31.943Z,2.85
2023-01-30T17:27:59.538Z,3.22
2023-01-30T17:30:26.167Z,3.05
2023-01-30T17:32:52.918Z,3.10
2023-01-30T17:35:20.098Z,3.20
2023-01-30T17:37:59.722Z,2.72
2023-01-30T17:43:13.327Z,3.63
2023-01-30T17:45:40.483Z,2.90
2023-01-30T17:48:07.660Z,3.05
2023-01-30T17:50:35.773Z,2.65
2023-01-30T17:53:03.257Z,4.88
2023-01-30T17:55:30.184Z,2.83
2023-01-30T17:57:56.946Z,2.97
2023-01-30T18:00:24.391Z,4.00
2023-01-30T18:02:51.063Z,3.50
2023-01-30T18:05:17.762Z,4.00
2023-01-30T18:07:46.499Z,2.83
2023-01-30T18:10:19.813Z,2.83
2023-01-30T18:12:49.595Z,3.08
2023-01-30T18:15:16.758Z,3.47
2023-01-30T18:17:47.428Z,3.00
2023-01-30T18:20:19.967Z,3.78
2023-01-30T18:22:47.203Z,3.22
2023-01-30T18:25:15.100Z,4.82
2023-01-30T18:27:44.292Z,5.13
2023-01-30T18:30:17.726Z,6.40
2023-01-30T18:32:52.993Z,3.72
2023-01-30T18:35:21.052Z,3.35
2023-01-30T18:37:47.809Z,3.72
2023-01-30T18:40:15.332Z,3.80
2023-01-30T18:42:42.484Z,3.38
2023-01-30T18:45:09.842Z,3.15
2023-01-30T18:47:36.696Z,3.28
2023-01-30T18:50:04.573Z,3.28
2023-01-30T18:52:31.566Z,3.90
2023-01-30T18:54:58.622Z,3.63
2023-01-30T18:57:25.353Z,3.88
2023-01-30T18:59:57.566Z,4.15
2023-01-30T19:02:24.346Z,4.18
2023-01-30T19:04:51.386Z,3.78
2023-01-30T19:07:18.110Z,4.20
2023-01-30T19:09:44.880Z,3.10
2023-01-30T19:12:30.149Z,3.38
2023-01-30T19:14:57.010Z,3.70
2023-01-30T19:17:26.442Z,4.60
2023-01-30T19:19:57.743Z,4.72
2023-01-30T19:22:30.562Z,5.32
2023-01-30T19:24:57.422Z,4.82
2023-01-30T19:27:24.608Z,3.80
2023-01-30T19:29:51.518Z,3.92
2023-01-30T19:32:18.688Z,4.43
2023-01-30T19:34:50.156Z,4.20
2023-01-30T19:37:20.819Z,4.47
2023-01-30T19:39:47.647Z,4.03
2023-01-30T19:42:22.797Z,4.75
2023-01-30T19:44:53.426Z,4.20
2023-01-30T19:47:22.255Z,4.38
2023-01-30T19:49:49.492Z,4.60
2023-01-30T19:52:16.598Z,4.32
2023-01-30T19:54:47.700Z,5.10
2023-01-30T19:57:14.516Z,4.57
2023-01-30T19:59:41.381Z,4.63
2023-01-30T20:02:12.897Z,4.80
2023-01-30T20:04:43.058Z,4.75
2023-01-30T20:07:13.695Z,4.32
2023-01-30T20:09:40.618Z,4.45
2023-01-30T20:12:07.817Z,3.90
2023-01-30T20:14:34.604Z,3.40
2023-01-30T20:17:01.440Z,4.22
2023-01-30T20:19:32.510Z,3.83
2023-01-30T20:22:00.090Z,4.22
2023-01-30T20:24:27.191Z,4.10
2023-01-30T20:26:54.245Z,4.50
2023-01-30T20:29:30.436Z,4.00
2023-01-30T20:31:58.573Z,2.95
2023-01-30T20:34:25.330Z,3.75
2023-01-30T20:36:52.781Z,4.22
2023-01-30T20:39:21.159Z,4.07
2023-01-30T20:41:48.167Z,3.45
2023-01-30T20:44:15.533Z,4.00
2023-01-30T20:46:46.303Z,3.53
2023-01-30T20:49:16.012Z,4.82
2023-01-30T20:51:43.286Z,4.00
2023-01-30T20:54:14.944Z,3.97
2023-01-30T20:56:47.893Z,3.90
2023-01-30T20:59:17.727Z,4.15
2023-01-30T21:01:46.097Z,3.60
2023-01-30T21:04:14.922Z,5.72
2023-01-30T21:06:45.692Z,3.88
2023-01-30T21:09:24.348Z,3.95
2023-01-30T21:11:53.282Z,4.70
2023-01-30T21:14:21.680Z,4.10
2023-01-30T21:16:48.867Z,3.72
2023-01-30T21:19:17.641Z,4.07
2023-01-30T21:21:51.167Z,3.17
2023-01-30T21:24:26.111Z,3.78
2023-01-30T21:26:53.284Z,3.85
2023-01-30T21:29:23.220Z,4.22
2023-01-30T21:31:58.928Z,3.83
2023-01-30T21:34:29.325Z,3.85
2023-01-30T21:37:14.260Z,3.58
2023-01-30T21:40:02.158Z,4.40
2023-01-30T21:42:40.250Z,4.18
2023-01-30T21:45:13.233Z,3.72
2023-01-30T21:47:39.994Z,3.88
2023-01-30T21:50:07.260Z,4.40
2023-01-30T21:52:33.987Z,4.68
2023-01-30T21:55:00.832Z,5.20
2023-01-30T21:57:27.571Z,3.92
2023-01-30T21:59:54.255Z,4.13
2023-01-30T22:02:20.981Z,4.40
2023-01-30T22:04:47.720Z,4.70
2023-01-30T22:07:14.640Z,4.18
2023-01-30T22:09:41.357Z,4.15
2023-01-30T22:12:08.420Z,4.10
2023-01-30T22:14:36.436Z,4.25
2023-01-30T22:17:03.191Z,4.90
2023-01-30T22:19:35.674Z,4.05
2023-01-30T22:22:03.103Z,4.35
2023-01-30T22:24:30.033Z,4.15
2023-01-30T22:26:56.765Z,4.10
2023-01-30T22:29:23.463Z,4.65
2023-01-30T22:31:50.155Z,4.70
2023-01-30T22:34:17.266Z,4.38
2023-01-30T22:36:43.967Z,4.18
2023-01-30T22:39:10.821Z,3.80
2023-01-30T22:44:05.604Z,4.57
2023-01-30T22:46:35.016Z,4.28
2023-01-30T22:49:03.870Z,4.57
2023-01-30T22:51:33.622Z,4.28
2023-01-30T22:54:03.357Z,3.80
2023-01-30T22:56:39.817Z,4.13
2023-01-30T22:59:07.186Z,4.22
2023-01-30T23:01:37.179Z,4.85
2023-01-30T23:04:24.261Z,4.75
2023-01-30T23:06:52.135Z,4.15
2023-01-30T23:09:21.768Z,5.13
2023-01-30T23:12:11.009Z,4.55
2023-01-30T23:14:39.622Z,4.65
2023-01-30T23:17:25.580Z,4.35
2023-01-30T23:19:55.612Z,4.40
2023-01-30T23:22:22.873Z,4.35
2023-01-30T23:24:51.512Z,5.35
2023-01-30T23:27:19.093Z,5.80
2023-01-30T23:29:45.847Z,4.72
2023-01-30T23:32:12.901Z,3.92
2023-01-30T23:34:43.020Z,4.30
2023-01-30T23:37:09.777Z,5.00
2023-01-30T23:39:36.508Z,4.68
2023-01-30T23:42:03.384Z,4.80
2023-01-30T23:44:30.223Z,4.05
2023-01-30T23:47:00.518Z,4.53
2023-01-30T23:49:27.174Z,4.40
2023-01-30T23:51:55.276Z,6.05
2023-01-30T23:54:21.977Z,4.65
2023-01-30T23:56:48.712Z,4.53
2023-01-30T23:59:15.407Z,5.80
